sensor_id;sensor_type;location;lat;lon;timestamp;temperature;humidity
33988;DHT22;37428;53.580;-1.666;2023-04-05T00:02:27;9.80;56.60
33988;DHT22;37428;53.580;-1.666;2023-04-05T00:05:31;9.80;56.90
33988;DHT22;37428;53.580;-1.666;2023-04-05T00:08:34;9.80;57.10
33988;DHT22;37428;53.580;-1.666;2023-04-05T00:11:38;9.80;57.20
33988;DHT22;37428;53.580;-1.666;2023-04-05T00:14:40;9.80;57.10
33988;DHT22;37428;53.580;-1.666;2023-04-05T00:17:43;9.80;57.00
33988;DHT22;37428;53.580;-1.666;2023-04-05T00:20:45;9.80;57.50
33988;DHT22;37428;53.580;-1.666;2023-04-05T00:23:48;9.80;57.90
33988;DHT22;37428;53.580;-1.666;2023-04-05T00:26:52;9.80;58.50
33988;DHT22;37428;53.580;-1.666;2023-04-05T00:29:54;9.80;57.90
33988;DHT22;37428;53.580;-1.666;2023-04-05T00:32:56;9.70;58.40
33988;DHT22;37428;53.580;-1.666;2023-04-05T00:36:08;9.80;58.00
33988;DHT22;37428;53.580;-1.666;2023-04-05T00:39:10;9.80;58.80
33988;DHT22;37428;53.580;-1.666;2023-04-05T00:42:14;9.80;59.00
33988;DHT22;37428;53.580;-1.666;2023-04-05T00:45:16;9.90;59.80
33988;DHT22;37428;53.580;-1.666;2023-04-05T00:48:18;9.80;58.60
33988;DHT22;37428;53.580;-1.666;2023-04-05T00:51:21;9.80;59.50
33988;DHT22;37428;53.580;-1.666;2023-04-05T00:54:23;9.80;59.70
33988;DHT22;37428;53.580;-1.666;2023-04-05T00:57:27;9.80;60.20
33988;DHT22;37428;53.580;-1.666;2023-04-05T01:00:29;9.80;60.80
33988;DHT22;37428;53.580;-1.666;2023-04-05T01:03:34;9.70;60.60
33988;DHT22;37428;53.580;-1.666;2023-04-05T01:06:51;9.70;61.20
33988;DHT22;37428;53.580;-1.666;2023-04-05T01:09:59;9.70;60.70
33988;DHT22;37428;53.580;-1.666;2023-04-05T01:13:03;9.60;60.70
33988;DHT22;37428;53.580;-1.666;2023-04-05T01:16:06;9.60;61.20
33988;DHT22;37428;53.580;-1.666;2023-04-05T01:19:08;9.50;61.00
33988;DHT22;37428;53.580;-1.666;2023-04-05T01:22:42;9.50;61.10
33988;DHT22;37428;53.580;-1.666;2023-04-05T01:26:14;9.50;62.20
33988;DHT22;37428;53.580;-1.666;2023-04-05T01:29:46;9.40;62.00
33988;DHT22;37428;53.580;-1.666;2023-04-05T01:33:06;9.40;62.50
33988;DHT22;37428;53.580;-1.666;2023-04-05T01:36:17;9.40;62.60
33988;DHT22;37428;53.580;-1.666;2023-04-05T01:39:23;9.20;62.90
33988;DHT22;37428;53.580;-1.666;2023-04-05T01:42:26;9.30;63.70
33988;DHT22;37428;53.580;-1.666;2023-04-05T01:45:29;9.30;63.70
33988;DHT22;37428;53.580;-1.666;2023-04-05T01:48:31;9.20;64.20
33988;DHT22;37428;53.580;-1.666;2023-04-05T01:51:33;9.20;65.30
33988;DHT22;37428;53.580;-1.666;2023-04-05T01:54:36;9.20;64.60
33988;DHT22;37428;53.580;-1.666;2023-04-05T01:57:38;9.20;63.70
33988;DHT22;37428;53.580;-1.666;2023-04-05T02:00:42;9.10;64.30
33988;DHT22;37428;53.580;-1.666;2023-04-05T02:03:44;9.10;64.20
33988;DHT22;37428;53.580;-1.666;2023-04-05T02:06:46;9.10;65.00
33988;DHT22;37428;53.580;-1.666;2023-04-05T02:09:48;9.10;65.00
33988;DHT22;37428;53.580;-1.666;2023-04-05T02:12:50;9.00;65.10
33988;DHT22;37428;53.580;-1.666;2023-04-05T02:15:54;8.90;65.00
33988;DHT22;37428;53.580;-1.666;2023-04-05T02:18:56;8.80;65.50
33988;DHT22;37428;53.580;-1.666;2023-04-05T02:21:59;8.80;65.70
33988;DHT22;37428;53.580;-1.666;2023-04-05T02:25:01;8.80;65.70
33988;DHT22;37428;53.580;-1.666;2023-04-05T02:28:04;8.80;65.40
33988;DHT22;37428;53.580;-1.666;2023-04-05T02:31:16;8.80;65.90
33988;DHT22;37428;53.580;-1.666;2023-04-05T02:34:19;8.70;65.70
33988;DHT22;37428;53.580;-1.666;2023-04-05T02:37:22;8.70;66.20
33988;DHT22;37428;53.580;-1.666;2023-04-05T02:40:27;8.70;66.40
33988;DHT22;37428;53.580;-1.666;2023-04-05T02:43:29;8.70;66.50
33988;DHT22;37428;53.580;-1.666;2023-04-05T02:46:35;8.80;66.40
33988;DHT22;37428;53.580;-1.666;2023-04-05T02:49:37;8.70;66.30
33988;DHT22;37428;53.580;-1.666;2023-04-05T02:52:39;8.70;67.00
33988;DHT22;37428;53.580;-1.666;2023-04-05T02:55:41;8.60;67.40
33988;DHT22;37428;53.580;-1.666;2023-04-05T02:58:43;8.60;68.00
33988;DHT22;37428;53.580;-1.666;2023-04-05T03:01:49;8.60;69.10
33988;DHT22;37428;53.580;-1.666;2023-04-05T03:04:51;8.60;69.10
33988;DHT22;37428;53.580;-1.666;2023-04-05T03:07:55;8.70;69.30
33988;DHT22;37428;53.580;-1.666;2023-04-05T03:11:00;8.60;69.90
33988;DHT22;37428;53.580;-1.666;2023-04-05T03:14:02;8.60;70.30
33988;DHT22;37428;53.580;-1.666;2023-04-05T03:17:06;8.60;70.00
33988;DHT22;37428;53.580;-1.666;2023-04-05T03:20:09;8.60;70.50
33988;DHT22;37428;53.580;-1.666;2023-04-05T03:23:11;8.60;70.40
33988;DHT22;37428;53.580;-1.666;2023-04-05T03:26:13;8.60;70.60
33988;DHT22;37428;53.580;-1.666;2023-04-05T03:29:16;8.60;70.90
33988;DHT22;37428;53.580;-1.666;2023-04-05T03:32:23;8.60;70.50
33988;DHT22;37428;53.580;-1.666;2023-04-05T03:35:26;8.50;71.20
33988;DHT22;37428;53.580;-1.666;2023-04-05T03:38:28;8.50;71.20
33988;DHT22;37428;53.580;-1.666;2023-04-05T03:41:33;8.50;72.00
33988;DHT22;37428;53.580;-1.666;2023-04-05T03:44:35;8.50;71.90
33988;DHT22;37428;53.580;-1.666;2023-04-05T03:47:39;8.40;72.10
33988;DHT22;37428;53.580;-1.666;2023-04-05T03:50:41;8.40;71.90
33988;DHT22;37428;53.580;-1.666;2023-04-05T03:53:43;8.30;72.60
33988;DHT22;37428;53.580;-1.666;2023-04-05T03:56:45;8.30;73.00
33988;DHT22;37428;53.580;-1.666;2023-04-05T03:59:47;8.20;73.30
33988;DHT22;37428;53.580;-1.666;2023-04-05T04:02:51;8.20;73.10
33988;DHT22;37428;53.580;-1.666;2023-04-05T04:05:54;8.20;73.40
33988;DHT22;37428;53.580;-1.666;2023-04-05T04:08:58;8.20;73.30
33988;DHT22;37428;53.580;-1.666;2023-04-05T04:12:00;8.20;73.40
33988;DHT22;37428;53.580;-1.666;2023-04-05T04:15:05;8.20;73.40
33988;DHT22;37428;53.580;-1.666;2023-04-05T04:18:08;8.30;73.30
33988;DHT22;37428;53.580;-1.666;2023-04-05T04:21:11;8.20;73.20
33988;DHT22;37428;53.580;-1.666;2023-04-05T04:24:16;8.20;73.60
33988;DHT22;37428;53.580;-1.666;2023-04-05T04:27:19;8.20;73.70
33988;DHT22;37428;53.580;-1.666;2023-04-05T04:30:22;8.20;73.30
33988;DHT22;37428;53.580;-1.666;2023-04-05T04:33:25;8.30;73.40
33988;DHT22;37428;53.580;-1.666;2023-04-05T04:36:27;8.30;73.50
33988;DHT22;37428;53.580;-1.666;2023-04-05T04:39:38;8.30;73.40
33988;DHT22;37428;53.580;-1.666;2023-04-05T04:42:44;8.20;73.50
33988;DHT22;37428;53.580;-1.666;2023-04-05T04:45:52;8.20;74.00
33988;DHT22;37428;53.580;-1.666;2023-04-05T04:49:00;8.20;74.10
33988;DHT22;37428;53.580;-1.666;2023-04-05T04:52:05;8.20;74.30
33988;DHT22;37428;53.580;-1.666;2023-04-05T04:55:08;8.10;74.20
33988;DHT22;37428;53.580;-1.666;2023-04-05T04:58:13;8.10;74.40
33988;DHT22;37428;53.580;-1.666;2023-04-05T05:01:15;8.10;74.40
33988;DHT22;37428;53.580;-1.666;2023-04-05T05:04:19;8.10;74.80
33988;DHT22;37428;53.580;-1.666;2023-04-05T05:07:22;8.10;74.90
33988;DHT22;37428;53.580;-1.666;2023-04-05T05:10:24;8.10;75.00
33988;DHT22;37428;53.580;-1.666;2023-04-05T05:13:26;8.10;75.20
33988;DHT22;37428;53.580;-1.666;2023-04-05T05:16:28;8.00;75.50
33988;DHT22;37428;53.580;-1.666;2023-04-05T05:19:32;8.00;75.70
33988;DHT22;37428;53.580;-1.666;2023-04-05T05:22:38;8.00;75.90
33988;DHT22;37428;53.580;-1.666;2023-04-05T05:25:42;8.00;75.90
33988;DHT22;37428;53.580;-1.666;2023-04-05T05:28:44;8.00;76.10
33988;DHT22;37428;53.580;-1.666;2023-04-05T05:31:49;8.10;76.20
33988;DHT22;37428;53.580;-1.666;2023-04-05T05:34:52;8.10;76.10
33988;DHT22;37428;53.580;-1.666;2023-04-05T05:37:54;8.10;76.20
33988;DHT22;37428;53.580;-1.666;2023-04-05T05:40:56;8.10;76.10
33988;DHT22;37428;53.580;-1.666;2023-04-05T05:43:59;8.10;76.00
33988;DHT22;37428;53.580;-1.666;2023-04-05T05:47:01;8.10;76.20
33988;DHT22;37428;53.580;-1.666;2023-04-05T05:50:09;8.10;76.20
33988;DHT22;37428;53.580;-1.666;2023-04-05T05:53:11;8.10;76.30
33988;DHT22;37428;53.580;-1.666;2023-04-05T05:56:15;8.10;76.40
33988;DHT22;37428;53.580;-1.666;2023-04-05T05:59:17;8.10;76.50
33988;DHT22;37428;53.580;-1.666;2023-04-05T06:02:19;8.20;76.90
33988;DHT22;37428;53.580;-1.666;2023-04-05T06:05:23;8.20;77.30
33988;DHT22;37428;53.580;-1.666;2023-04-05T06:08:26;8.20;77.60
33988;DHT22;37428;53.580;-1.666;2023-04-05T06:11:28;8.20;78.60
33988;DHT22;37428;53.580;-1.666;2023-04-05T06:14:30;8.20;79.00
33988;DHT22;37428;53.580;-1.666;2023-04-05T06:17:32;8.20;79.80
33988;DHT22;37428;53.580;-1.666;2023-04-05T06:20:43;8.20;80.10
33988;DHT22;37428;53.580;-1.666;2023-04-05T06:23:45;8.30;80.70
33988;DHT22;37428;53.580;-1.666;2023-04-05T06:26:49;8.30;81.50
33988;DHT22;37428;53.580;-1.666;2023-04-05T06:29:51;8.30;81.20
33988;DHT22;37428;53.580;-1.666;2023-04-05T06:32:55;8.30;80.90
33988;DHT22;37428;53.580;-1.666;2023-04-05T06:35:58;8.30;81.40
33988;DHT22;37428;53.580;-1.666;2023-04-05T06:39:00;8.30;82.10
33988;DHT22;37428;53.580;-1.666;2023-04-05T06:42:03;8.30;82.60
33988;DHT22;37428;53.580;-1.666;2023-04-05T06:45:06;8.30;82.20
33988;DHT22;37428;53.580;-1.666;2023-04-05T06:48:08;8.30;81.10
33988;DHT22;37428;53.580;-1.666;2023-04-05T06:51:12;8.30;82.40
33988;DHT22;37428;53.580;-1.666;2023-04-05T06:54:15;8.40;82.90
33988;DHT22;37428;53.580;-1.666;2023-04-05T06:57:18;8.30;83.40
33988;DHT22;37428;53.580;-1.666;2023-04-05T07:00:20;8.30;82.70
33988;DHT22;37428;53.580;-1.666;2023-04-05T07:03:23;8.40;82.20
33988;DHT22;37428;53.580;-1.666;2023-04-05T07:06:35;8.40;82.30
33988;DHT22;37428;53.580;-1.666;2023-04-05T07:09:38;8.40;82.40
33988;DHT22;37428;53.580;-1.666;2023-04-05T07:12:41;8.40;82.80
33988;DHT22;37428;53.580;-1.666;2023-04-05T07:15:43;8.40;82.80
33988;DHT22;37428;53.580;-1.666;2023-04-05T07:18:45;8.40;83.60
33988;DHT22;37428;53.580;-1.666;2023-04-05T07:21:49;8.40;84.50
33988;DHT22;37428;53.580;-1.666;2023-04-05T07:24:51;8.40;84.80
33988;DHT22;37428;53.580;-1.666;2023-04-05T07:27:55;8.40;84.60
33988;DHT22;37428;53.580;-1.666;2023-04-05T07:30:57;8.50;84.10
33988;DHT22;37428;53.580;-1.666;2023-04-05T07:33:59;8.50;84.30
33988;DHT22;37428;53.580;-1.666;2023-04-05T07:37:04;8.50;83.60
33988;DHT22;37428;53.580;-1.666;2023-04-05T07:40:07;8.50;83.50
33988;DHT22;37428;53.580;-1.666;2023-04-05T07:43:11;8.50;84.10
33988;DHT22;37428;53.580;-1.666;2023-04-05T07:46:13;8.50;84.70
33988;DHT22;37428;53.580;-1.666;2023-04-05T07:49:15;8.40;84.40
33988;DHT22;37428;53.580;-1.666;2023-04-05T07:52:19;8.50;84.40
33988;DHT22;37428;53.580;-1.666;2023-04-05T07:55:21;8.50;84.70
33988;DHT22;37428;53.580;-1.666;2023-04-05T07:58:23;8.60;84.50
33988;DHT22;37428;53.580;-1.666;2023-04-05T08:01:25;8.60;84.50
33988;DHT22;37428;53.580;-1.666;2023-04-05T08:04:28;8.60;85.40
33988;DHT22;37428;53.580;-1.666;2023-04-05T08:07:32;8.60;84.40
33988;DHT22;37428;53.580;-1.666;2023-04-05T08:10:37;8.60;85.20
33988;DHT22;37428;53.580;-1.666;2023-04-05T08:13:39;8.60;85.30
33988;DHT22;37428;53.580;-1.666;2023-04-05T08:16:42;8.70;85.80
33988;DHT22;37428;53.580;-1.666;2023-04-05T08:19:44;8.70;85.20
33988;DHT22;37428;53.580;-1.666;2023-04-05T08:22:48;8.80;85.20
33988;DHT22;37428;53.580;-1.666;2023-04-05T08:25:50;8.80;84.60
33988;DHT22;37428;53.580;-1.666;2023-04-05T08:28:52;8.80;83.90
33988;DHT22;37428;53.580;-1.666;2023-04-05T08:31:55;8.80;83.40
33988;DHT22;37428;53.580;-1.666;2023-04-05T08:34:58;8.80;83.90
33988;DHT22;37428;53.580;-1.666;2023-04-05T08:38:01;8.90;83.70
33988;DHT22;37428;53.580;-1.666;2023-04-05T08:41:16;8.90;83.20
33988;DHT22;37428;53.580;-1.666;2023-04-05T08:44:21;8.90;82.70
33988;DHT22;37428;53.580;-1.666;2023-04-05T08:47:24;8.80;82.30
33988;DHT22;37428;53.580;-1.666;2023-04-05T08:50:26;8.90;83.20
33988;DHT22;37428;53.580;-1.666;2023-04-05T08:53:30;8.90;82.80
33988;DHT22;37428;53.580;-1.666;2023-04-05T08:56:34;8.90;83.30
33988;DHT22;37428;53.580;-1.666;2023-04-05T08:59:37;8.90;83.40
33988;DHT22;37428;53.580;-1.666;2023-04-05T09:02:43;8.90;83.40
33988;DHT22;37428;53.580;-1.666;2023-04-05T09:05:48;9.00;83.50
33988;DHT22;37428;53.580;-1.666;2023-04-05T09:08:53;9.10;83.40
33988;DHT22;37428;53.580;-1.666;2023-04-05T09:11:57;9.10;83.70
33988;DHT22;37428;53.580;-1.666;2023-04-05T09:15:01;9.10;84.10
33988;DHT22;37428;53.580;-1.666;2023-04-05T09:18:05;9.20;83.60
33988;DHT22;37428;53.580;-1.666;2023-04-05T09:21:07;9.30;84.00
33988;DHT22;37428;53.580;-1.666;2023-04-05T09:24:11;9.40;83.50
33988;DHT22;37428;53.580;-1.666;2023-04-05T09:27:14;9.40;84.00
33988;DHT22;37428;53.580;-1.666;2023-04-05T09:30:20;9.40;83.50
33988;DHT22;37428;53.580;-1.666;2023-04-05T09:33:23;9.50;82.70
33988;DHT22;37428;53.580;-1.666;2023-04-05T09:36:26;9.50;82.00
33988;DHT22;37428;53.580;-1.666;2023-04-05T09:39:31;9.50;82.50
33988;DHT22;37428;53.580;-1.666;2023-04-05T09:42:43;9.60;83.90
33988;DHT22;37428;53.580;-1.666;2023-04-05T09:45:45;9.60;84.30
33988;DHT22;37428;53.580;-1.666;2023-04-05T09:48:48;9.60;84.80
33988;DHT22;37428;53.580;-1.666;2023-04-05T09:51:51;9.60;85.80
33988;DHT22;37428;53.580;-1.666;2023-04-05T09:54:56;9.60;86.90
33988;DHT22;37428;53.580;-1.666;2023-04-05T09:57:58;9.70;87.00
33988;DHT22;37428;53.580;-1.666;2023-04-05T10:01:01;9.70;86.70
33988;DHT22;37428;53.580;-1.666;2023-04-05T10:04:05;9.70;85.80
33988;DHT22;37428;53.580;-1.666;2023-04-05T10:07:08;9.70;86.90
33988;DHT22;37428;53.580;-1.666;2023-04-05T10:10:14;9.80;86.30
33988;DHT22;37428;53.580;-1.666;2023-04-05T10:13:17;9.80;86.40
33988;DHT22;37428;53.580;-1.666;2023-04-05T10:16:21;9.80;86.10
33988;DHT22;37428;53.580;-1.666;2023-04-05T10:19:28;9.70;83.90
33988;DHT22;37428;53.580;-1.666;2023-04-05T10:22:38;9.60;85.30
33988;DHT22;37428;53.580;-1.666;2023-04-05T10:25:56;9.60;86.60
33988;DHT22;37428;53.580;-1.666;2023-04-05T10:29:08;9.60;86.10
33988;DHT22;37428;53.580;-1.666;2023-04-05T10:32:17;9.70;85.70
33988;DHT22;37428;53.580;-1.666;2023-04-05T10:35:30;9.70;85.00
33988;DHT22;37428;53.580;-1.666;2023-04-05T10:38:40;9.80;85.60
33988;DHT22;37428;53.580;-1.666;2023-04-05T10:41:53;9.80;85.40
33988;DHT22;37428;53.580;-1.666;2023-04-05T10:45:01;9.80;86.00
33988;DHT22;37428;53.580;-1.666;2023-04-05T10:48:10;9.80;84.60
33988;DHT22;37428;53.580;-1.666;2023-04-05T10:51:17;9.80;84.70
33988;DHT22;37428;53.580;-1.666;2023-04-05T10:54:19;9.90;85.40
33988;DHT22;37428;53.580;-1.666;2023-04-05T10:57:25;9.90;85.00
33988;DHT22;37428;53.580;-1.666;2023-04-05T11:00:28;9.90;86.10
33988;DHT22;37428;53.580;-1.666;2023-04-05T11:03:46;9.90;85.70
33988;DHT22;37428;53.580;-1.666;2023-04-05T11:07:12;10.00;85.70
33988;DHT22;37428;53.580;-1.666;2023-04-05T11:10:16;10.00;86.90
33988;DHT22;37428;53.580;-1.666;2023-04-05T11:13:49;10.10;86.80
33988;DHT22;37428;53.580;-1.666;2023-04-05T11:16:53;10.10;86.20
33988;DHT22;37428;53.580;-1.666;2023-04-05T11:20:02;10.00;87.20
33988;DHT22;37428;53.580;-1.666;2023-04-05T11:23:04;10.00;86.90
33988;DHT22;37428;53.580;-1.666;2023-04-05T11:26:07;9.90;87.40
33988;DHT22;37428;53.580;-1.666;2023-04-05T11:29:10;9.90;86.70
33988;DHT22;37428;53.580;-1.666;2023-04-05T11:32:12;9.80;88.10
33988;DHT22;37428;53.580;-1.666;2023-04-05T11:35:16;9.90;87.30
33988;DHT22;37428;53.580;-1.666;2023-04-05T11:38:22;10.00;88.00
33988;DHT22;37428;53.580;-1.666;2023-04-05T11:41:25;10.00;87.30
33988;DHT22;37428;53.580;-1.666;2023-04-05T11:44:47;10.00;86.70
33988;DHT22;37428;53.580;-1.666;2023-04-05T11:47:51;10.00;86.60
33988;DHT22;37428;53.580;-1.666;2023-04-05T11:50:53;10.00;87.10
33988;DHT22;37428;53.580;-1.666;2023-04-05T11:53:56;10.10;87.80
33988;DHT22;37428;53.580;-1.666;2023-04-05T11:56:59;10.10;87.00
33988;DHT22;37428;53.580;-1.666;2023-04-05T12:00:03;10.10;87.00
33988;DHT22;37428;53.580;-1.666;2023-04-05T12:03:05;10.20;87.40
33988;DHT22;37428;53.580;-1.666;2023-04-05T12:06:08;10.20;87.20
33988;DHT22;37428;53.580;-1.666;2023-04-05T12:09:10;10.20;87.10
33988;DHT22;37428;53.580;-1.666;2023-04-05T12:12:15;10.20;87.50
33988;DHT22;37428;53.580;-1.666;2023-04-05T12:15:19;10.20;86.50
33988;DHT22;37428;53.580;-1.666;2023-04-05T12:18:24;10.20;86.40
33988;DHT22;37428;53.580;-1.666;2023-04-05T12:21:27;10.20;86.60
33988;DHT22;37428;53.580;-1.666;2023-04-05T12:24:29;10.20;86.40
33988;DHT22;37428;53.580;-1.666;2023-04-05T12:27:31;10.10;85.90
33988;DHT22;37428;53.580;-1.666;2023-04-05T12:30:35;10.20;86.30
33988;DHT22;37428;53.580;-1.666;2023-04-05T12:33:48;10.10;86.60
33988;DHT22;37428;53.580;-1.666;2023-04-05T12:36:51;10.00;86.80
33988;DHT22;37428;53.580;-1.666;2023-04-05T12:39:54;10.00;87.10
33988;DHT22;37428;53.580;-1.666;2023-04-05T12:43:01;9.90;86.40
33988;DHT22;37428;53.580;-1.666;2023-04-05T12:46:08;9.80;87.20
33988;DHT22;37428;53.580;-1.666;2023-04-05T12:49:11;9.80;87.30
33988;DHT22;37428;53.580;-1.666;2023-04-05T12:52:18;9.80;87.40
33988;DHT22;37428;53.580;-1.666;2023-04-05T12:55:20;9.70;87.90
33988;DHT22;37428;53.580;-1.666;2023-04-05T12:58:31;9.80;88.40
33988;DHT22;37428;53.580;-1.666;2023-04-05T13:01:37;9.80;87.80
33988;DHT22;37428;53.580;-1.666;2023-04-05T13:04:39;9.80;87.20
33988;DHT22;37428;53.580;-1.666;2023-04-05T13:07:41;9.80;87.10
33988;DHT22;37428;53.580;-1.666;2023-04-05T13:10:44;9.70;87.40
33988;DHT22;37428;53.580;-1.666;2023-04-05T13:13:46;9.70;87.70
33988;DHT22;37428;53.580;-1.666;2023-04-05T13:16:50;9.80;88.00
33988;DHT22;37428;53.580;-1.666;2023-04-05T13:19:52;9.80;88.00
33988;DHT22;37428;53.580;-1.666;2023-04-05T13:22:54;9.70;88.30
33988;DHT22;37428;53.580;-1.666;2023-04-05T13:25:56;9.70;88.70
33988;DHT22;37428;53.580;-1.666;2023-04-05T13:28:59;9.80;88.80
33988;DHT22;37428;53.580;-1.666;2023-04-05T13:32:02;9.80;88.90
33988;DHT22;37428;53.580;-1.666;2023-04-05T13:35:05;9.80;89.30
33988;DHT22;37428;53.580;-1.666;2023-04-05T13:38:08;9.90;88.80
33988;DHT22;37428;53.580;-1.666;2023-04-05T13:41:10;9.90;88.80
33988;DHT22;37428;53.580;-1.666;2023-04-05T13:44:12;9.90;89.10
33988;DHT22;37428;53.580;-1.666;2023-04-05T13:47:15;9.90;89.80
33988;DHT22;37428;53.580;-1.666;2023-04-05T13:50:17;9.80;89.90
33988;DHT22;37428;53.580;-1.666;2023-04-05T13:53:20;9.70;90.90
33988;DHT22;37428;53.580;-1.666;2023-04-05T13:56:22;9.70;91.50
33988;DHT22;37428;53.580;-1.666;2023-04-05T13:59:24;9.70;91.80
33988;DHT22;37428;53.580;-1.666;2023-04-05T14:02:27;9.80;91.20
33988;DHT22;37428;53.580;-1.666;2023-04-05T14:05:29;9.60;91.10
33988;DHT22;37428;53.580;-1.666;2023-04-05T14:08:31;9.70;91.60
33988;DHT22;37428;53.580;-1.666;2023-04-05T14:11:34;9.70;91.90
33988;DHT22;37428;53.580;-1.666;2023-04-05T14:14:36;9.90;91.90
33988;DHT22;37428;53.580;-1.666;2023-04-05T14:17:39;9.80;91.20
33988;DHT22;37428;53.580;-1.666;2023-04-05T14:20:42;9.90;91.30
33988;DHT22;37428;53.580;-1.666;2023-04-05T14:23:45;9.90;91.30
33988;DHT22;37428;53.580;-1.666;2023-04-05T14:26:49;9.90;91.20
33988;DHT22;37428;53.580;-1.666;2023-04-05T14:29:52;9.90;92.30
33988;DHT22;37428;53.580;-1.666;2023-04-05T14:32:58;10.00;92.20
33988;DHT22;37428;53.580;-1.666;2023-04-05T14:36:00;10.00;92.40
33988;DHT22;37428;53.580;-1.666;2023-04-05T14:39:03;10.10;92.60
33988;DHT22;37428;53.580;-1.666;2023-04-05T14:42:05;10.20;91.90
33988;DHT22;37428;53.580;-1.666;2023-04-05T14:45:08;10.30;91.60
33988;DHT22;37428;53.580;-1.666;2023-04-05T14:48:12;10.40;91.70
33988;DHT22;37428;53.580;-1.666;2023-04-05T14:51:14;10.40;90.60
33988;DHT22;37428;53.580;-1.666;2023-04-05T14:54:16;10.40;91.00
33988;DHT22;37428;53.580;-1.666;2023-04-05T14:57:19;10.30;90.80
33988;DHT22;37428;53.580;-1.666;2023-04-05T15:00:21;10.30;91.20
33988;DHT22;37428;53.580;-1.666;2023-04-05T15:03:26;10.20;91.30
33988;DHT22;37428;53.580;-1.666;2023-04-05T15:06:29;10.20;90.90
33988;DHT22;37428;53.580;-1.666;2023-04-05T15:09:31;10.20;91.70
33988;DHT22;37428;53.580;-1.666;2023-04-05T15:12:34;10.30;92.00
33988;DHT22;37428;53.580;-1.666;2023-04-05T15:15:36;10.20;91.40
33988;DHT22;37428;53.580;-1.666;2023-04-05T15:18:40;10.30;92.10
33988;DHT22;37428;53.580;-1.666;2023-04-05T15:21:42;10.30;91.50
33988;DHT22;37428;53.580;-1.666;2023-04-05T15:24:45;10.30;92.10
33988;DHT22;37428;53.580;-1.666;2023-04-05T15:27:47;10.40;92.20
33988;DHT22;37428;53.580;-1.666;2023-04-05T15:30:50;10.40;91.80
33988;DHT22;37428;53.580;-1.666;2023-04-05T15:33:54;10.50;92.20
33988;DHT22;37428;53.580;-1.666;2023-04-05T15:36:56;10.50;92.00
33988;DHT22;37428;53.580;-1.666;2023-04-05T15:39:58;10.50;91.90
33988;DHT22;37428;53.580;-1.666;2023-04-05T15:43:00;10.60;91.50
33988;DHT22;37428;53.580;-1.666;2023-04-05T15:46:03;10.60;91.20
33988;DHT22;37428;53.580;-1.666;2023-04-05T15:49:07;10.60;90.90
33988;DHT22;37428;53.580;-1.666;2023-04-05T15:52:10;10.70;91.10
33988;DHT22;37428;53.580;-1.666;2023-04-05T15:55:11;10.70;90.50
33988;DHT22;37428;53.580;-1.666;2023-04-05T15:58:14;10.70;90.50
33988;DHT22;37428;53.580;-1.666;2023-04-05T16:01:16;10.60;90.60
33988;DHT22;37428;53.580;-1.666;2023-04-05T16:04:20;10.60;91.50
33988;DHT22;37428;53.580;-1.666;2023-04-05T16:07:22;10.60;91.10
33988;DHT22;37428;53.580;-1.666;2023-04-05T16:10:24;10.60;91.00
33988;DHT22;37428;53.580;-1.666;2023-04-05T16:13:27;10.60;90.40
33988;DHT22;37428;53.580;-1.666;2023-04-05T16:16:29;10.60;91.20
33988;DHT22;37428;53.580;-1.666;2023-04-05T16:19:33;10.50;90.90
33988;DHT22;37428;53.580;-1.666;2023-04-05T16:22:35;10.50;91.10
33988;DHT22;37428;53.580;-1.666;2023-04-05T16:25:37;10.50;91.10
33988;DHT22;37428;53.580;-1.666;2023-04-05T16:28:39;10.50;91.40
33988;DHT22;37428;53.580;-1.666;2023-04-05T16:31:42;10.50;90.80
33988;DHT22;37428;53.580;-1.666;2023-04-05T16:34:48;10.50;91.10
33988;DHT22;37428;53.580;-1.666;2023-04-05T16:37:50;10.50;91.20
33988;DHT22;37428;53.580;-1.666;2023-04-05T16:40:52;10.50;91.50
33988;DHT22;37428;53.580;-1.666;2023-04-05T16:43:54;10.50;91.40
33988;DHT22;37428;53.580;-1.666;2023-04-05T16:46:56;10.60;91.80
33988;DHT22;37428;53.580;-1.666;2023-04-05T16:50:00;10.60;91.60
33988;DHT22;37428;53.580;-1.666;2023-04-05T16:53:03;10.60;91.70
33988;DHT22;37428;53.580;-1.666;2023-04-05T16:56:06;10.60;91.50
33988;DHT22;37428;53.580;-1.666;2023-04-05T16:59:08;10.60;91.40
33988;DHT22;37428;53.580;-1.666;2023-04-05T17:02:10;10.60;91.00
33988;DHT22;37428;53.580;-1.666;2023-04-05T17:05:13;10.60;91.60
33988;DHT22;37428;53.580;-1.666;2023-04-05T17:08:16;10.50;91.10
33988;DHT22;37428;53.580;-1.666;2023-04-05T17:11:18;10.50;91.20
33988;DHT22;37428;53.580;-1.666;2023-04-05T17:14:21;10.50;91.20
33988;DHT22;37428;53.580;-1.666;2023-04-05T17:17:23;10.40;91.20
33988;DHT22;37428;53.580;-1.666;2023-04-05T17:20:26;10.40;91.50
33988;DHT22;37428;53.580;-1.666;2023-04-05T17:23:29;10.40;90.30
33988;DHT22;37428;53.580;-1.666;2023-04-05T17:26:31;10.40;90.50
33988;DHT22;37428;53.580;-1.666;2023-04-05T17:29:33;10.40;90.90
33988;DHT22;37428;53.580;-1.666;2023-04-05T17:32:35;10.40;91.60
33988;DHT22;37428;53.580;-1.666;2023-04-05T17:35:39;10.40;91.60
33988;DHT22;37428;53.580;-1.666;2023-04-05T17:38:41;10.30;91.20
33988;DHT22;37428;53.580;-1.666;2023-04-05T17:41:44;10.30;91.00
33988;DHT22;37428;53.580;-1.666;2023-04-05T17:44:46;10.30;90.60
33988;DHT22;37428;53.580;-1.666;2023-04-05T17:47:48;10.20;90.80
33988;DHT22;37428;53.580;-1.666;2023-04-05T17:50:52;10.20;90.80
33988;DHT22;37428;53.580;-1.666;2023-04-05T17:53:56;10.20;90.80
33988;DHT22;37428;53.580;-1.666;2023-04-05T17:56:58;10.20;91.60
33988;DHT22;37428;53.580;-1.666;2023-04-05T18:00:00;10.20;91.80
33988;DHT22;37428;53.580;-1.666;2023-04-05T18:03:03;10.20;91.90
33988;DHT22;37428;53.580;-1.666;2023-04-05T18:06:07;10.20;91.40
33988;DHT22;37428;53.580;-1.666;2023-04-05T18:09:09;10.20;91.70
33988;DHT22;37428;53.580;-1.666;2023-04-05T18:12:11;10.20;91.30
33988;DHT22;37428;53.580;-1.666;2023-04-05T18:15:13;10.10;91.70
33988;DHT22;37428;53.580;-1.666;2023-04-05T18:18:16;10.20;91.60
33988;DHT22;37428;53.580;-1.666;2023-04-05T18:21:20;10.10;91.80
33988;DHT22;37428;53.580;-1.666;2023-04-05T18:24:22;10.20;92.40
33988;DHT22;37428;53.580;-1.666;2023-04-05T18:27:24;10.20;92.30
33988;DHT22;37428;53.580;-1.666;2023-04-05T18:30:26;10.10;91.80
33988;DHT22;37428;53.580;-1.666;2023-04-05T18:33:29;10.10;92.40
33988;DHT22;37428;53.580;-1.666;2023-04-05T18:36:32;10.10;92.10
33988;DHT22;37428;53.580;-1.666;2023-04-05T18:39:35;10.10;91.80
33988;DHT22;37428;53.580;-1.666;2023-04-05T18:42:37;10.10;92.20
33988;DHT22;37428;53.580;-1.666;2023-04-05T18:45:40;10.10;92.40
33988;DHT22;37428;53.580;-1.666;2023-04-05T18:48:42;10.10;92.30
33988;DHT22;37428;53.580;-1.666;2023-04-05T18:51:45;10.10;92.10
33988;DHT22;37428;53.580;-1.666;2023-04-05T18:54:48;10.10;92.40
33988;DHT22;37428;53.580;-1.666;2023-04-05T18:57:50;10.10;93.10
33988;DHT22;37428;53.580;-1.666;2023-04-05T19:00:52;10.10;93.50
33988;DHT22;37428;53.580;-1.666;2023-04-05T19:03:54;10.10;93.00
33988;DHT22;37428;53.580;-1.666;2023-04-05T19:06:58;10.10;93.10
33988;DHT22;37428;53.580;-1.666;2023-04-05T19:10:00;10.00;93.10
33988;DHT22;37428;53.580;-1.666;2023-04-05T19:13:03;10.00;92.80
33988;DHT22;37428;53.580;-1.666;2023-04-05T19:16:05;10.10;92.60